ESNZ

Östersund Airport

Östersund, Sweden
METAR ESNZ 231350Z 09006KT 9000 -SN VV030 M09/M12 Q1030
Observed Flight Rules
Feb-23 @ 13:50 UTC (46 minutes ago) Instrument Flight Rules
Wind Visibility Clouds Conditions
90° at 6 knots 8,996 meters
  • Vertical visibility at 3,000' AGL
  • Light Snow
Temperatures Readings
Current -9°C / 16°F
Dewpoint -12°C / 10°F
Humidity 79%
Altimeter 30.41" Hg
Pressure 1030 hPa
Elevation 370
METAR ESNZ 231350Z 09006KT 9000 -SN VV030 M09/M12 Q1030
Observed Flight Rules
Feb-23 @ 13:50 UTC
(46 minutes ago)
LIFR
Wind Visibility
90° at 6 knots 8,996 meters
Clouds
  • Vertical visibility at 3,000' AGL
Conditions
  • Light Snow
Temperature Dewpoint
-9°C / 16°F -12°C / 10°F
Humidity Altimeter Pressure
79% 30.41" Hg 1030 hPa